sensor_id;sensor_type;location;lat;lon;timestamp;P1;durP1;ratioP1;P2;durP2;ratioP2
15633;SDS011;14654;48.898;8.308;2022-08-19T00:01:31;14.43;;;13.33;;
15633;SDS011;14654;48.898;8.308;2022-08-19T00:03:59;14.57;;;13.47;;
15633;SDS011;14654;48.898;8.308;2022-08-19T00:06:26;13.27;;;12.37;;
15633;SDS011;14654;48.898;8.308;2022-08-19T00:08:53;14.07;;;13.07;;
15633;SDS011;14654;48.898;8.308;2022-08-19T00:11:18;13.87;;;12.87;;
15633;SDS011;14654;48.898;8.308;2022-08-19T00:13:44;14.10;;;12.90;;
15633;SDS011;14654;48.898;8.308;2022-08-19T00:16:11;12.97;;;12.03;;
15633;SDS011;14654;48.898;8.308;2022-08-19T00:18:36;13.60;;;12.63;;
15633;SDS011;14654;48.898;8.308;2022-08-19T00:21:02;14.60;;;13.50;;
15633;SDS011;14654;48.898;8.308;2022-08-19T00:23:28;15.17;;;14.07;;
15633;SDS011;14654;48.898;8.308;2022-08-19T00:25:55;16.03;;;14.83;;
15633;SDS011;14654;48.898;8.308;2022-08-19T00:28:20;14.93;;;13.90;;
15633;SDS011;14654;48.898;8.308;2022-08-19T00:30:46;16.37;;;15.17;;
15633;SDS011;14654;48.898;8.308;2022-08-19T00:33:11;15.90;;;14.70;;
15633;SDS011;14654;48.898;8.308;2022-08-19T00:35:38;18.43;;;17.03;;
15633;SDS011;14654;48.898;8.308;2022-08-19T00:38:04;16.90;;;15.70;;
15633;SDS011;14654;48.898;8.308;2022-08-19T00:40:31;16.60;;;15.30;;
15633;SDS011;14654;48.898;8.308;2022-08-19T00:42:57;17.70;;;16.20;;
15633;SDS011;14654;48.898;8.308;2022-08-19T00:45:24;16.90;;;15.70;;
15633;SDS011;14654;48.898;8.308;2022-08-19T00:47:51;16.50;;;15.30;;
15633;SDS011;14654;48.898;8.308;2022-08-19T00:50:18;15.17;;;14.17;;
15633;SDS011;14654;48.898;8.308;2022-08-19T00:52:46;15.20;;;14.10;;
15633;SDS011;14654;48.898;8.308;2022-08-19T00:55:19;15.63;;;14.43;;
15633;SDS011;14654;48.898;8.308;2022-08-19T00:58:00;15.57;;;14.47;;
15633;SDS011;14654;48.898;8.308;2022-08-19T01:00:29;15.07;;;13.97;;
15633;SDS011;14654;48.898;8.308;2022-08-19T01:02:55;15.20;;;14.10;;
15633;SDS011;14654;48.898;8.308;2022-08-19T01:05:22;16.47;;;15.20;;
15633;SDS011;14654;48.898;8.308;2022-08-19T01:07:53;16.33;;;15.03;;
15633;SDS011;14654;48.898;8.308;2022-08-19T01:10:21;17.07;;;15.77;;
15633;SDS011;14654;48.898;8.308;2022-08-19T01:12:50;17.93;;;16.63;;
15633;SDS011;14654;48.898;8.308;2022-08-19T01:15:18;18.27;;;16.97;;
15633;SDS011;14654;48.898;8.308;2022-08-19T01:17:47;16.40;;;15.20;;
15633;SDS011;14654;48.898;8.308;2022-08-19T01:20:15;16.07;;;14.87;;
15633;SDS011;14654;48.898;8.308;2022-08-19T01:22:46;15.27;;;14.17;;
15633;SDS011;14654;48.898;8.308;2022-08-19T01:25:18;16.03;;;14.83;;
15633;SDS011;14654;48.898;8.308;2022-08-19T01:27:46;15.80;;;14.60;;
15633;SDS011;14654;48.898;8.308;2022-08-19T01:30:15;15.87;;;14.77;;
15633;SDS011;14654;48.898;8.308;2022-08-19T01:32:43;14.83;;;13.70;;
15633;SDS011;14654;48.898;8.308;2022-08-19T01:35:08;15.67;;;14.37;;
15633;SDS011;14654;48.898;8.308;2022-08-19T01:37:46;16.03;;;14.93;;
15633;SDS011;14654;48.898;8.308;2022-08-19T01:40:14;14.70;;;13.63;;
15633;SDS011;14654;48.898;8.308;2022-08-19T01:42:40;15.37;;;14.27;;
15633;SDS011;14654;48.898;8.308;2022-08-19T01:45:06;14.83;;;13.73;;
15633;SDS011;14654;48.898;8.308;2022-08-19T01:47:33;15.13;;;14.03;;
15633;SDS011;14654;48.898;8.308;2022-08-19T01:50:00;15.07;;;13.97;;
15633;SDS011;14654;48.898;8.308;2022-08-19T01:52:25;15.50;;;14.33;;
15633;SDS011;14654;48.898;8.308;2022-08-19T01:54:52;14.07;;;13.07;;
15633;SDS011;14654;48.898;8.308;2022-08-19T01:57:17;15.30;;;14.10;;
15633;SDS011;14654;48.898;8.308;2022-08-19T01:59:43;15.07;;;13.90;;
15633;SDS011;14654;48.898;8.308;2022-08-19T02:02:09;15.60;;;14.50;;
15633;SDS011;14654;48.898;8.308;2022-08-19T02:04:35;14.83;;;13.83;;
15633;SDS011;14654;48.898;8.308;2022-08-19T02:07:03;15.43;;;14.33;;
15633;SDS011;14654;48.898;8.308;2022-08-19T02:09:30;15.67;;;14.57;;
15633;SDS011;14654;48.898;8.308;2022-08-19T02:11:56;15.47;;;14.37;;
15633;SDS011;14654;48.898;8.308;2022-08-19T02:14:21;15.40;;;14.30;;
15633;SDS011;14654;48.898;8.308;2022-08-19T02:16:47;15.20;;;14.10;;
15633;SDS011;14654;48.898;8.308;2022-08-19T02:19:12;15.67;;;14.50;;
15633;SDS011;14654;48.898;8.308;2022-08-19T02:21:38;15.90;;;14.60;;
15633;SDS011;14654;48.898;8.308;2022-08-19T02:24:03;15.53;;;14.43;;
15633;SDS011;14654;48.898;8.308;2022-08-19T02:26:29;15.07;;;13.97;;
15633;SDS011;14654;48.898;8.308;2022-08-19T02:28:54;16.67;;;15.40;;
15633;SDS011;14654;48.898;8.308;2022-08-19T02:31:21;15.30;;;14.20;;
15633;SDS011;14654;48.898;8.308;2022-08-19T02:33:49;15.97;;;14.87;;
15633;SDS011;14654;48.898;8.308;2022-08-19T02:36:16;16.07;;;14.97;;
15633;SDS011;14654;48.898;8.308;2022-08-19T02:38:42;15.63;;;14.53;;
15633;SDS011;14654;48.898;8.308;2022-08-19T02:41:13;16.47;;;15.27;;
15633;SDS011;14654;48.898;8.308;2022-08-19T02:43:43;16.10;;;14.90;;
15633;SDS011;14654;48.898;8.308;2022-08-19T02:46:19;16.97;;;15.77;;
15633;SDS011;14654;48.898;8.308;2022-08-19T02:48:48;16.17;;;14.97;;
15633;SDS011;14654;48.898;8.308;2022-08-19T02:51:24;16.73;;;15.43;;
15633;SDS011;14654;48.898;8.308;2022-08-19T02:53:52;16.30;;;15.10;;
15633;SDS011;14654;48.898;8.308;2022-08-19T02:56:17;15.47;;;14.37;;
15633;SDS011;14654;48.898;8.308;2022-08-19T02:58:43;16.57;;;15.40;;
15633;SDS011;14654;48.898;8.308;2022-08-19T03:01:09;16.13;;;14.93;;
15633;SDS011;14654;48.898;8.308;2022-08-19T03:03:36;16.77;;;15.47;;
15633;SDS011;14654;48.898;8.308;2022-08-19T03:06:03;16.63;;;15.43;;
15633;SDS011;14654;48.898;8.308;2022-08-19T03:08:39;17.73;;;16.47;;
15633;SDS011;14654;48.898;8.308;2022-08-19T03:11:12;18.17;;;16.77;;
15633;SDS011;14654;48.898;8.308;2022-08-19T03:13:39;19.30;;;17.80;;
15633;SDS011;14654;48.898;8.308;2022-08-19T03:16:05;16.90;;;15.70;;
15633;SDS011;14654;48.898;8.308;2022-08-19T03:18:31;17.87;;;16.37;;
15633;SDS011;14654;48.898;8.308;2022-08-19T03:20:56;17.03;;;15.77;;
15633;SDS011;14654;48.898;8.308;2022-08-19T03:23:22;17.30;;;16.00;;
15633;SDS011;14654;48.898;8.308;2022-08-19T03:25:48;15.97;;;14.87;;
15633;SDS011;14654;48.898;8.308;2022-08-19T03:28:15;16.97;;;15.77;;
15633;SDS011;14654;48.898;8.308;2022-08-19T03:30:42;16.67;;;15.47;;
15633;SDS011;14654;48.898;8.308;2022-08-19T03:33:21;17.80;;;16.47;;
15633;SDS011;14654;48.898;8.308;2022-08-19T03:35:46;18.27;;;16.87;;
15633;SDS011;14654;48.898;8.308;2022-08-19T03:38:12;18.53;;;17.13;;
15633;SDS011;14654;48.898;8.308;2022-08-19T03:40:37;18.53;;;17.13;;
15633;SDS011;14654;48.898;8.308;2022-08-19T03:43:03;17.97;;;16.57;;
15633;SDS011;14654;48.898;8.308;2022-08-19T03:45:28;17.87;;;16.57;;
15633;SDS011;14654;48.898;8.308;2022-08-19T03:47:54;17.23;;;16.03;;
15633;SDS011;14654;48.898;8.308;2022-08-19T03:50:19;17.67;;;16.30;;
15633;SDS011;14654;48.898;8.308;2022-08-19T03:52:51;17.90;;;16.53;;
15633;SDS011;14654;48.898;8.308;2022-08-19T03:55:17;18.03;;;16.63;;
15633;SDS011;14654;48.898;8.308;2022-08-19T03:57:43;17.10;;;15.90;;
15633;SDS011;14654;48.898;8.308;2022-08-19T04:00:10;17.40;;;16.00;;
15633;SDS011;14654;48.898;8.308;2022-08-19T04:02:36;17.40;;;16.10;;
15633;SDS011;14654;48.898;8.308;2022-08-19T04:05:02;17.13;;;15.87;;
15633;SDS011;14654;48.898;8.308;2022-08-19T04:07:27;18.13;;;16.83;;
15633;SDS011;14654;48.898;8.308;2022-08-19T04:09:53;17.73;;;16.43;;
15633;SDS011;14654;48.898;8.308;2022-08-19T04:12:18;17.83;;;16.43;;
15633;SDS011;14654;48.898;8.308;2022-08-19T04:14:45;18.27;;;16.87;;
15633;SDS011;14654;48.898;8.308;2022-08-19T04:17:10;19.53;;;18.03;;
15633;SDS011;14654;48.898;8.308;2022-08-19T04:19:38;18.23;;;16.93;;
15633;SDS011;14654;48.898;8.308;2022-08-19T04:22:05;17.60;;;16.27;;
15633;SDS011;14654;48.898;8.308;2022-08-19T04:24:31;18.20;;;16.80;;
15633;SDS011;14654;48.898;8.308;2022-08-19T04:26:59;19.20;;;17.67;;
15633;SDS011;14654;48.898;8.308;2022-08-19T04:29:26;17.73;;;16.40;;
15633;SDS011;14654;48.898;8.308;2022-08-19T04:31:52;18.17;;;16.87;;
15633;SDS011;14654;48.898;8.308;2022-08-19T04:34:20;18.10;;;16.73;;
15633;SDS011;14654;48.898;8.308;2022-08-19T04:36:47;18.90;;;17.30;;
15633;SDS011;14654;48.898;8.308;2022-08-19T04:39:16;17.93;;;16.60;;
15633;SDS011;14654;48.898;8.308;2022-08-19T04:41:44;18.20;;;16.80;;
15633;SDS011;14654;48.898;8.308;2022-08-19T04:44:29;17.03;;;15.73;;
15633;SDS011;14654;48.898;8.308;2022-08-19T04:46:56;17.93;;;16.53;;
15633;SDS011;14654;48.898;8.308;2022-08-19T04:49:22;17.67;;;16.37;;
15633;SDS011;14654;48.898;8.308;2022-08-19T04:51:49;18.33;;;16.93;;
15633;SDS011;14654;48.898;8.308;2022-08-19T04:54:16;16.63;;;15.33;;
15633;SDS011;14654;48.898;8.308;2022-08-19T04:56:47;17.97;;;16.60;;
15633;SDS011;14654;48.898;8.308;2022-08-19T04:59:14;20.10;;;18.53;;
15633;SDS011;14654;48.898;8.308;2022-08-19T05:01:42;19.13;;;17.70;;
15633;SDS011;14654;48.898;8.308;2022-08-19T05:04:07;21.73;;;20.03;;
15633;SDS011;14654;48.898;8.308;2022-08-19T05:06:34;23.37;;;21.47;;
15633;SDS011;14654;48.898;8.308;2022-08-19T05:09:01;21.33;;;19.50;;
15633;SDS011;14654;48.898;8.308;2022-08-19T05:11:34;20.40;;;18.80;;
15633;SDS011;14654;48.898;8.308;2022-08-19T05:14:03;21.20;;;19.50;;
15633;SDS011;14654;48.898;8.308;2022-08-19T05:16:30;21.60;;;19.90;;
15633;SDS011;14654;48.898;8.308;2022-08-19T05:18:55;18.93;;;17.53;;
15633;SDS011;14654;48.898;8.308;2022-08-19T05:21:40;20.47;;;18.77;;
15633;SDS011;14654;48.898;8.308;2022-08-19T05:24:25;20.43;;;18.73;;
15633;SDS011;14654;48.898;8.308;2022-08-19T05:26:52;19.00;;;17.60;;
15633;SDS011;14654;48.898;8.308;2022-08-19T05:29:21;19.47;;;17.97;;
15633;SDS011;14654;48.898;8.308;2022-08-19T05:31:48;19.17;;;17.67;;
15633;SDS011;14654;48.898;8.308;2022-08-19T05:34:14;17.93;;;16.63;;
15633;SDS011;14654;48.898;8.308;2022-08-19T05:36:41;18.97;;;17.47;;
15633;SDS011;14654;48.898;8.308;2022-08-19T05:39:09;18.73;;;17.23;;
15633;SDS011;14654;48.898;8.308;2022-08-19T05:41:40;17.93;;;16.53;;
15633;SDS011;14654;48.898;8.308;2022-08-19T05:44:23;18.60;;;17.10;;
15633;SDS011;14654;48.898;8.308;2022-08-19T05:47:00;19.50;;;18.00;;
15633;SDS011;14654;48.898;8.308;2022-08-19T05:49:27;19.20;;;17.63;;
15633;SDS011;14654;48.898;8.308;2022-08-19T05:51:54;19.93;;;18.37;;
15633;SDS011;14654;48.898;8.308;2022-08-19T05:54:20;19.90;;;18.30;;
15633;SDS011;14654;48.898;8.308;2022-08-19T05:56:48;17.90;;;16.50;;
15633;SDS011;14654;48.898;8.308;2022-08-19T05:59:15;17.80;;;16.50;;
15633;SDS011;14654;48.898;8.308;2022-08-19T06:01:42;18.27;;;16.87;;
15633;SDS011;14654;48.898;8.308;2022-08-19T06:04:10;18.27;;;16.87;;
15633;SDS011;14654;48.898;8.308;2022-08-19T06:06:36;17.97;;;16.63;;
15633;SDS011;14654;48.898;8.308;2022-08-19T06:09:03;17.77;;;16.47;;
15633;SDS011;14654;48.898;8.308;2022-08-19T06:11:37;17.07;;;15.77;;
15633;SDS011;14654;48.898;8.308;2022-08-19T06:14:04;18.40;;;16.87;;
15633;SDS011;14654;48.898;8.308;2022-08-19T06:16:33;17.67;;;16.37;;
15633;SDS011;14654;48.898;8.308;2022-08-19T06:19:01;17.67;;;16.27;;
15633;SDS011;14654;48.898;8.308;2022-08-19T06:21:28;17.83;;;16.43;;
15633;SDS011;14654;48.898;8.308;2022-08-19T06:23:55;17.20;;;15.83;;
15633;SDS011;14654;48.898;8.308;2022-08-19T06:26:22;16.20;;;15.00;;
15633;SDS011;14654;48.898;8.308;2022-08-19T06:28:49;17.20;;;15.90;;
15633;SDS011;14654;48.898;8.308;2022-08-19T06:31:16;17.20;;;15.80;;
15633;SDS011;14654;48.898;8.308;2022-08-19T06:33:45;17.33;;;16.03;;
15633;SDS011;14654;48.898;8.308;2022-08-19T06:36:20;16.77;;;15.47;;
15633;SDS011;14654;48.898;8.308;2022-08-19T06:38:52;17.33;;;16.07;;
15633;SDS011;14654;48.898;8.308;2022-08-19T06:41:17;17.60;;;16.20;;
15633;SDS011;14654;48.898;8.308;2022-08-19T06:43:42;17.50;;;16.10;;
15633;SDS011;14654;48.898;8.308;2022-08-19T06:46:09;17.17;;;15.77;;
15633;SDS011;14654;48.898;8.308;2022-08-19T06:48:36;16.57;;;15.37;;
15633;SDS011;14654;48.898;8.308;2022-08-19T06:51:02;15.83;;;14.63;;
15633;SDS011;14654;48.898;8.308;2022-08-19T06:53:28;17.93;;;16.53;;
15633;SDS011;14654;48.898;8.308;2022-08-19T06:55:54;16.37;;;15.13;;
15633;SDS011;14654;48.898;8.308;2022-08-19T06:58:24;17.27;;;15.87;;
15633;SDS011;14654;48.898;8.308;2022-08-19T07:00:50;16.30;;;15.10;;
15633;SDS011;14654;48.898;8.308;2022-08-19T07:03:16;15.93;;;14.73;;
15633;SDS011;14654;48.898;8.308;2022-08-19T07:05:41;15.93;;;14.77;;
15633;SDS011;14654;48.898;8.308;2022-08-19T07:08:07;17.17;;;15.87;;
15633;SDS011;14654;48.898;8.308;2022-08-19T07:10:32;15.23;;;14.10;;
15633;SDS011;14654;48.898;8.308;2022-08-19T07:12:59;16.33;;;15.03;;
15633;SDS011;14654;48.898;8.308;2022-08-19T07:15:25;15.67;;;14.47;;
15633;SDS011;14654;48.898;8.308;2022-08-19T07:17:51;15.60;;;14.33;;
15633;SDS011;14654;48.898;8.308;2022-08-19T07:20:17;15.40;;;14.20;;
15633;SDS011;14654;48.898;8.308;2022-08-19T07:22:42;15.17;;;14.07;;
15633;SDS011;14654;48.898;8.308;2022-08-19T07:25:09;15.70;;;14.50;;
15633;SDS011;14654;48.898;8.308;2022-08-19T07:27:35;15.37;;;14.27;;
15633;SDS011;14654;48.898;8.308;2022-08-19T07:30:00;14.73;;;13.63;;
15633;SDS011;14654;48.898;8.308;2022-08-19T07:32:26;14.77;;;13.67;;
15633;SDS011;14654;48.898;8.308;2022-08-19T07:34:51;13.90;;;12.90;;
15633;SDS011;14654;48.898;8.308;2022-08-19T07:37:17;14.87;;;13.77;;
15633;SDS011;14654;48.898;8.308;2022-08-19T07:39:42;14.10;;;13.03;;
15633;SDS011;14654;48.898;8.308;2022-08-19T07:42:09;14.83;;;13.63;;
15633;SDS011;14654;48.898;8.308;2022-08-19T07:44:35;13.83;;;12.83;;
15633;SDS011;14654;48.898;8.308;2022-08-19T07:47:02;14.53;;;13.43;;
15633;SDS011;14654;48.898;8.308;2022-08-19T07:49:29;14.73;;;13.63;;
15633;SDS011;14654;48.898;8.308;2022-08-19T07:51:57;14.37;;;13.33;;
15633;SDS011;14654;48.898;8.308;2022-08-19T07:54:27;14.67;;;13.53;;
15633;SDS011;14654;48.898;8.308;2022-08-19T07:56:55;13.40;;;12.40;;
15633;SDS011;14654;48.898;8.308;2022-08-19T07:59:21;13.80;;;12.80;;
15633;SDS011;14654;48.898;8.308;2022-08-19T08:01:48;12.80;;;11.90;;
15633;SDS011;14654;48.898;8.308;2022-08-19T08:04:15;13.73;;;12.73;;
15633;SDS011;14654;48.898;8.308;2022-08-19T08:06:59;12.57;;;11.70;;
15633;SDS011;14654;48.898;8.308;2022-08-19T08:09:44;12.63;;;11.70;;
15633;SDS011;14654;48.898;8.308;2022-08-19T08:12:12;12.80;;;11.87;;
15633;SDS011;14654;48.898;8.308;2022-08-19T08:14:46;12.97;;;12.07;;
15633;SDS011;14654;48.898;8.308;2022-08-19T08:17:15;14.37;;;13.27;;
15633;SDS011;14654;48.898;8.308;2022-08-19T08:19:43;14.60;;;13.50;;
15633;SDS011;14654;48.898;8.308;2022-08-19T08:22:09;13.97;;;12.70;;
15633;SDS011;14654;48.898;8.308;2022-08-19T08:24:56;13.23;;;12.33;;
15633;SDS011;14654;48.898;8.308;2022-08-19T08:27:26;13.80;;;12.60;;
15633;SDS011;14654;48.898;8.308;2022-08-19T08:29:56;12.00;;;11.20;;
15633;SDS011;14654;48.898;8.308;2022-08-19T08:32:22;11.57;;;10.80;;
15633;SDS011;14654;48.898;8.308;2022-08-19T08:34:48;11.13;;;10.33;;
15633;SDS011;14654;48.898;8.308;2022-08-19T08:37:13;12.47;;;11.57;;
15633;SDS011;14654;48.898;8.308;2022-08-19T08:39:39;11.70;;;10.90;;
15633;SDS011;14654;48.898;8.308;2022-08-19T08:42:19;12.30;;;11.40;;
15633;SDS011;14654;48.898;8.308;2022-08-19T08:44:58;11.50;;;10.60;;
15633;SDS011;14654;48.898;8.308;2022-08-19T08:47:27;11.50;;;10.60;;
15633;SDS011;14654;48.898;8.308;2022-08-19T08:50:18;13.17;;;12.07;;
15633;SDS011;14654;48.898;8.308;2022-08-19T08:52:48;11.37;;;10.53;;
15633;SDS011;14654;48.898;8.308;2022-08-19T08:55:19;10.83;;;10.03;;
15633;SDS011;14654;48.898;8.308;2022-08-19T09:00:17;12.43;;;11.43;;
15633;SDS011;14654;48.898;8.308;2022-08-19T09:02:46;11.90;;;11.00;;
15633;SDS011;14654;48.898;8.308;2022-08-19T09:05:12;12.27;;;11.37;;
15633;SDS011;14654;48.898;8.308;2022-08-19T09:07:53;11.67;;;10.77;;
15633;SDS011;14654;48.898;8.308;2022-08-19T09:10:44;11.40;;;10.50;;
15633;SDS011;14654;48.898;8.308;2022-08-19T09:16:22;11.23;;;10.43;;
15633;SDS011;14654;48.898;8.308;2022-08-19T09:18:52;11.27;;;10.27;;
15633;SDS011;14654;48.898;8.308;2022-08-19T09:21:23;10.27;;;9.53;;
15633;SDS011;14654;48.898;8.308;2022-08-19T09:23:50;11.27;;;10.27;;
15633;SDS011;14654;48.898;8.308;2022-08-19T09:26:16;10.17;;;9.17;;
15633;SDS011;14654;48.898;8.308;2022-08-19T09:28:45;9.70;;;8.80;;
15633;SDS011;14654;48.898;8.308;2022-08-19T09:31:22;9.20;;;8.50;;
15633;SDS011;14654;48.898;8.308;2022-08-19T09:33:50;8.20;;;7.60;;
15633;SDS011;14654;48.898;8.308;2022-08-19T09:36:19;9.50;;;8.70;;
15633;SDS011;14654;48.898;8.308;2022-08-19T09:38:47;9.40;;;8.60;;
15633;SDS011;14654;48.898;8.308;2022-08-19T09:41:14;7.80;;;7.20;;
15633;SDS011;14654;48.898;8.308;2022-08-19T09:43:44;7.77;;;7.17;;
15633;SDS011;14654;48.898;8.308;2022-08-19T09:46:11;7.80;;;7.20;;
15633;SDS011;14654;48.898;8.308;2022-08-19T09:48:37;7.60;;;6.90;;
15633;SDS011;14654;48.898;8.308;2022-08-19T09:51:07;8.30;;;7.70;;
15633;SDS011;14654;48.898;8.308;2022-08-19T09:53:34;8.23;;;7.40;;
15633;SDS011;14654;48.898;8.308;2022-08-19T09:56:00;8.60;;;7.90;;
15633;SDS011;14654;48.898;8.308;2022-08-19T09:58:26;7.37;;;6.77;;
15633;SDS011;14654;48.898;8.308;2022-08-19T10:00:53;7.33;;;6.83;;
15633;SDS011;14654;48.898;8.308;2022-08-19T10:03:19;7.63;;;7.03;;
15633;SDS011;14654;48.898;8.308;2022-08-19T10:05:45;8.70;;;8.00;;
15633;SDS011;14654;48.898;8.308;2022-08-19T10:08:13;8.37;;;7.67;;
15633;SDS011;14654;48.898;8.308;2022-08-19T10:10:42;10.27;;;7.10;;
15633;SDS011;14654;48.898;8.308;2022-08-19T10:13:09;7.30;;;6.80;;
15633;SDS011;14654;48.898;8.308;2022-08-19T10:15:34;7.57;;;7.07;;
15633;SDS011;14654;48.898;8.308;2022-08-19T10:18:00;7.30;;;6.70;;
15633;SDS011;14654;48.898;8.308;2022-08-19T10:20:26;6.67;;;6.20;;
15633;SDS011;14654;48.898;8.308;2022-08-19T10:22:51;7.20;;;6.70;;
15633;SDS011;14654;48.898;8.308;2022-08-19T10:25:16;6.93;;;6.43;;
15633;SDS011;14654;48.898;8.308;2022-08-19T10:27:42;7.00;;;6.40;;
15633;SDS011;14654;48.898;8.308;2022-08-19T10:30:08;7.27;;;6.57;;
15633;SDS011;14654;48.898;8.308;2022-08-19T10:32:34;7.13;;;6.63;;
15633;SDS011;14654;48.898;8.308;2022-08-19T10:35:00;7.43;;;6.73;;
15633;SDS011;14654;48.898;8.308;2022-08-19T10:37:25;7.20;;;6.70;;
15633;SDS011;14654;48.898;8.308;2022-08-19T10:39:51;7.83;;;7.23;;
15633;SDS011;14654;48.898;8.308;2022-08-19T10:42:17;7.90;;;7.07;;
15633;SDS011;14654;48.898;8.308;2022-08-19T10:44:43;6.93;;;6.40;;
15633;SDS011;14654;48.898;8.308;2022-08-19T10:47:09;7.33;;;6.73;;
15633;SDS011;14654;48.898;8.308;2022-08-19T10:49:35;6.80;;;6.30;;
15633;SDS011;14654;48.898;8.308;2022-08-19T10:52:20;8.10;;;7.50;;
15633;SDS011;14654;48.898;8.308;2022-08-19T10:54:58;8.70;;;8.00;;
15633;SDS011;14654;48.898;8.308;2022-08-19T10:57:43;7.77;;;7.00;;
15633;SDS011;14654;48.898;8.308;2022-08-19T11:00:09;7.70;;;6.80;;
15633;SDS011;14654;48.898;8.308;2022-08-19T11:02:35;8.10;;;7.43;;
15633;SDS011;14654;48.898;8.308;2022-08-19T11:05:00;7.30;;;6.80;;
15633;SDS011;14654;48.898;8.308;2022-08-19T11:07:25;8.10;;;7.50;;
15633;SDS011;14654;48.898;8.308;2022-08-19T11:09:51;7.57;;;6.87;;
15633;SDS011;14654;48.898;8.308;2022-08-19T11:12:17;6.67;;;6.23;;
15633;SDS011;14654;48.898;8.308;2022-08-19T11:14:42;7.60;;;7.00;;
15633;SDS011;14654;48.898;8.308;2022-08-19T11:17:07;6.87;;;6.27;;
15633;SDS011;14654;48.898;8.308;2022-08-19T11:19:33;8.83;;;8.23;;
15633;SDS011;14654;48.898;8.308;2022-08-19T11:21:59;8.53;;;7.03;;
15633;SDS011;14654;48.898;8.308;2022-08-19T11:24:28;7.80;;;7.10;;
15633;SDS011;14654;48.898;8.308;2022-08-19T11:27:02;7.33;;;6.83;;
15633;SDS011;14654;48.898;8.308;2022-08-19T11:29:29;7.77;;;7.27;;
15633;SDS011;14654;48.898;8.308;2022-08-19T11:31:55;7.30;;;6.60;;
15633;SDS011;14654;48.898;8.308;2022-08-19T11:34:22;7.50;;;6.97;;
15633;SDS011;14654;48.898;8.308;2022-08-19T11:36:49;7.90;;;7.30;;
15633;SDS011;14654;48.898;8.308;2022-08-19T11:39:17;7.40;;;6.90;;
15633;SDS011;14654;48.898;8.308;2022-08-19T11:41:45;8.10;;;7.50;;
15633;SDS011;14654;48.898;8.308;2022-08-19T11:44:10;7.70;;;7.10;;
15633;SDS011;14654;48.898;8.308;2022-08-19T11:46:38;8.30;;;7.57;;
15633;SDS011;14654;48.898;8.308;2022-08-19T11:49:05;8.07;;;7.47;;
15633;SDS011;14654;48.898;8.308;2022-08-19T11:51:34;7.67;;;7.17;;
15633;SDS011;14654;48.898;8.308;2022-08-19T11:53:59;7.53;;;7.00;;
15633;SDS011;14654;48.898;8.308;2022-08-19T11:56:25;8.27;;;7.67;;
15633;SDS011;14654;48.898;8.308;2022-08-19T11:58:52;7.70;;;7.20;;
15633;SDS011;14654;48.898;8.308;2022-08-19T12:01:19;7.80;;;7.30;;
15633;SDS011;14654;48.898;8.308;2022-08-19T12:03:46;8.17;;;7.57;;
15633;SDS011;14654;48.898;8.308;2022-08-19T12:06:18;8.50;;;8.00;;
15633;SDS011;14654;48.898;8.308;2022-08-19T12:08:48;8.47;;;7.87;;
15633;SDS011;14654;48.898;8.308;2022-08-19T12:11:14;8.40;;;7.90;;
15633;SDS011;14654;48.898;8.308;2022-08-19T12:13:39;8.07;;;7.57;;
15633;SDS011;14654;48.898;8.308;2022-08-19T12:16:07;8.37;;;7.77;;
15633;SDS011;14654;48.898;8.308;2022-08-19T12:18:43;8.23;;;7.73;;
15633;SDS011;14654;48.898;8.308;2022-08-19T12:21:11;7.53;;;7.00;;
15633;SDS011;14654;48.898;8.308;2022-08-19T12:23:38;7.60;;;7.10;;
15633;SDS011;14654;48.898;8.308;2022-08-19T12:26:04;7.00;;;6.50;;
15633;SDS011;14654;48.898;8.308;2022-08-19T12:28:30;7.43;;;7.00;;
15633;SDS011;14654;48.898;8.308;2022-08-19T12:30:55;7.50;;;7.00;;
15633;SDS011;14654;48.898;8.308;2022-08-19T12:33:22;8.20;;;7.70;;
15633;SDS011;14654;48.898;8.308;2022-08-19T12:35:50;8.23;;;7.70;;
15633;SDS011;14654;48.898;8.308;2022-08-19T12:38:16;8.30;;;7.73;;
15633;SDS011;14654;48.898;8.308;2022-08-19T12:40:41;8.80;;;8.20;;
15633;SDS011;14654;48.898;8.308;2022-08-19T12:43:10;7.90;;;7.40;;
15633;SDS011;14654;48.898;8.308;2022-08-19T12:45:36;8.20;;;7.70;;
15633;SDS011;14654;48.898;8.308;2022-08-19T12:48:02;8.57;;;7.97;;
15633;SDS011;14654;48.898;8.308;2022-08-19T12:50:29;8.73;;;8.13;;
15633;SDS011;14654;48.898;8.308;2022-08-19T12:52:55;8.43;;;7.93;;
15633;SDS011;14654;48.898;8.308;2022-08-19T12:55:22;8.30;;;7.80;;
15633;SDS011;14654;48.898;8.308;2022-08-19T12:57:47;9.17;;;8.47;;
15633;SDS011;14654;48.898;8.308;2022-08-19T13:00:15;9.03;;;8.43;;
15633;SDS011;14654;48.898;8.308;2022-08-19T13:02:44;9.30;;;8.40;;
15633;SDS011;14654;48.898;8.308;2022-08-19T13:05:13;7.97;;;7.37;;
15633;SDS011;14654;48.898;8.308;2022-08-19T13:07:41;8.43;;;7.83;;
15633;SDS011;14654;48.898;8.308;2022-08-19T13:10:09;8.43;;;7.83;;
15633;SDS011;14654;48.898;8.308;2022-08-19T13:12:40;8.27;;;7.67;;
15633;SDS011;14654;48.898;8.308;2022-08-19T13:15:06;7.90;;;7.40;;
15633;SDS011;14654;48.898;8.308;2022-08-19T13:17:33;8.70;;;8.10;;
15633;SDS011;14654;48.898;8.308;2022-08-19T13:19:59;8.17;;;7.67;;
15633;SDS011;14654;48.898;8.308;2022-08-19T13:22:24;7.70;;;7.20;;
15633;SDS011;14654;48.898;8.308;2022-08-19T13:24:50;7.17;;;6.77;;
15633;SDS011;14654;48.898;8.308;2022-08-19T13:27:15;6.40;;;6.00;;
15633;SDS011;14654;48.898;8.308;2022-08-19T13:29:41;6.80;;;6.40;;
15633;SDS011;14654;48.898;8.308;2022-08-19T13:32:25;6.03;;;5.63;;
15633;SDS011;14654;48.898;8.308;2022-08-19T13:35:09;5.23;;;4.93;;
15633;SDS011;14654;48.898;8.308;2022-08-19T13:37:35;5.43;;;5.13;;
15633;SDS011;14654;48.898;8.308;2022-08-19T13:40:07;4.80;;;4.50;;
15633;SDS011;14654;48.898;8.308;2022-08-19T13:42:38;4.83;;;4.50;;
15633;SDS011;14654;48.898;8.308;2022-08-19T13:45:05;4.60;;;4.30;;
15633;SDS011;14654;48.898;8.308;2022-08-19T13:47:31;4.10;;;3.80;;
15633;SDS011;14654;48.898;8.308;2022-08-19T13:49:59;4.80;;;4.40;;
15633;SDS011;14654;48.898;8.308;2022-08-19T13:52:25;5.00;;;4.60;;
15633;SDS011;14654;48.898;8.308;2022-08-19T13:54:50;4.77;;;4.47;;
15633;SDS011;14654;48.898;8.308;2022-08-19T13:57:15;5.37;;;4.97;;
15633;SDS011;14654;48.898;8.308;2022-08-19T13:59:41;5.00;;;4.60;;
15633;SDS011;14654;48.898;8.308;2022-08-19T14:02:06;5.30;;;4.90;;
15633;SDS011;14654;48.898;8.308;2022-08-19T14:04:31;4.97;;;4.67;;
15633;SDS011;14654;48.898;8.308;2022-08-19T14:06:57;5.43;;;4.93;;
15633;SDS011;14654;48.898;8.308;2022-08-19T14:09:22;4.90;;;4.53;;
15633;SDS011;14654;48.898;8.308;2022-08-19T14:11:47;4.87;;;4.50;;
15633;SDS011;14654;48.898;8.308;2022-08-19T14:14:15;4.83;;;4.43;;
15633;SDS011;14654;48.898;8.308;2022-08-19T14:16:40;5.10;;;4.70;;
15633;SDS011;14654;48.898;8.308;2022-08-19T14:19:05;4.93;;;4.53;;
15633;SDS011;14654;48.898;8.308;2022-08-19T14:21:32;4.82;;;4.53;;
15633;SDS011;14654;48.898;8.308;2022-08-19T14:23:58;5.17;;;4.87;;
15633;SDS011;14654;48.898;8.308;2022-08-19T14:26:23;5.10;;;4.80;;
15633;SDS011;14654;48.898;8.308;2022-08-19T14:28:49;5.13;;;4.83;;
15633;SDS011;14654;48.898;8.308;2022-08-19T14:31:15;4.93;;;4.63;;
15633;SDS011;14654;48.898;8.308;2022-08-19T14:33:43;5.30;;;4.90;;
15633;SDS011;14654;48.898;8.308;2022-08-19T14:36:09;5.00;;;4.70;;
15633;SDS011;14654;48.898;8.308;2022-08-19T14:38:34;5.70;;;5.20;;
15633;SDS011;14654;48.898;8.308;2022-08-19T14:41:08;4.63;;;4.33;;